createdAt,value
2024-01-31T00:00:36.323Z,-1.29
2024-01-31T00:01:41.055Z,-1.28
2024-01-31T00:02:42.688Z,-1.27
2024-01-31T00:03:46.270Z,-1.35
2024-01-31T00:04:47.947Z,-1.36
2024-01-31T00:05:50.137Z,-1.47
2024-01-31T00:06:52.191Z,-1.42
2024-01-31T00:07:53.819Z,-1.42
2024-01-31T00:08:56.706Z,-1.45
2024-01-31T00:09:58.319Z,-1.40
2024-01-31T00:11:00.030Z,-1.43
2024-01-31T00:12:01.672Z,-1.52
2024-01-31T00:13:03.318Z,-1.49
2024-01-31T00:14:07.872Z,-1.52
2024-01-31T00:15:09.722Z,-1.53
2024-01-31T00:16:11.297Z,-1.48
2024-01-31T00:17:13.022Z,-1.48
2024-01-31T00:18:14.661Z,-1.47
2024-01-31T00:19:16.419Z,-1.48
2024-01-31T00:20:18.036Z,-1.52
2024-01-31T00:21:19.833Z,-1.55
2024-01-31T00:22:21.470Z,-1.51
2024-01-31T00:23:24.303Z,-1.55
2024-01-31T00:24:25.944Z,-1.57
2024-01-31T00:25:27.629Z,-1.52
2024-01-31T00:26:29.207Z,-1.61
2024-01-31T00:27:30.796Z,-1.57
2024-01-31T00:28:32.454Z,-1.53
2024-01-31T00:29:36.210Z,-1.52
2024-01-31T00:30:39.526Z,-1.52
2024-01-31T00:31:41.130Z,-1.53
2024-01-31T00:32:42.762Z,-1.52
2024-01-31T00:33:44.448Z,-1.55
2024-01-31T00:34:46.257Z,-1.56
2024-01-31T00:35:47.842Z,-1.57
2024-01-31T00:36:49.414Z,-1.58
2024-01-31T00:37:52.009Z,-1.59
2024-01-31T00:38:53.595Z,-1.54
2024-01-31T00:39:55.226Z,-1.57
2024-01-31T00:40:56.805Z,-1.57
2024-01-31T00:41:59.319Z,-1.56
2024-01-31T00:43:00.998Z,-1.54
2024-01-31T00:44:02.621Z,-1.59
2024-01-31T00:45:04.753Z,-1.63
2024-01-31T00:46:06.512Z,-1.61
2024-01-31T00:47:08.296Z,-1.58
2024-01-31T00:48:09.992Z,-1.61
2024-01-31T00:49:11.672Z,-1.59
2024-01-31T00:50:16.680Z,-1.67
2024-01-31T00:51:18.244Z,-1.81
2024-01-31T00:52:19.882Z,-1.90
2024-01-31T00:53:21.509Z,-1.89
2024-01-31T00:54:23.129Z,-1.83
2024-01-31T00:55:24.873Z,-1.78
2024-01-31T00:56:26.457Z,-1.78
2024-01-31T00:57:28.035Z,-1.78
2024-01-31T00:58:29.635Z,-1.83
2024-01-31T00:59:31.442Z,-1.83
2024-01-31T01:00:33.376Z,-1.83
2024-01-31T01:01:35.058Z,-1.81
2024-01-31T01:02:37.515Z,-1.83
2024-01-31T01:03:39.068Z,-1.82
2024-01-31T01:04:40.799Z,-1.96
2024-01-31T01:05:42.385Z,-1.95
2024-01-31T01:06:44.081Z,-2.03
2024-01-31T01:07:46.902Z,-1.98
2024-01-31T01:08:48.623Z,-1.94
2024-01-31T01:09:50.766Z,-1.95
2024-01-31T01:10:52.485Z,-1.99
2024-01-31T01:11:54.101Z,-1.98
2024-01-31T01:12:57.740Z,-1.98
2024-01-31T01:13:59.331Z,-2.03
2024-01-31T01:15:09.122Z,-2.13
2024-01-31T01:16:17.042Z,-2.09
2024-01-31T01:17:18.649Z,-2.37
2024-01-31T01:18:20.231Z,-2.12
2024-01-31T01:19:21.851Z,-2.17
2024-01-31T01:20:23.455Z,-2.09
2024-01-31T01:21:25.044Z,-2.10
2024-01-31T01:22:26.784Z,-2.07
2024-01-31T01:23:28.393Z,-2.14
2024-01-31T01:24:29.952Z,-2.12
2024-01-31T01:25:31.541Z,-2.11
2024-01-31T01:26:33.228Z,-2.13
2024-01-31T01:27:35.979Z,-2.07
2024-01-31T01:28:39.595Z,-2.11
2024-01-31T01:29:41.226Z,-2.08
2024-01-31T01:30:42.729Z,-2.08
2024-01-31T01:31:44.350Z,-2.08
2024-01-31T01:32:46.110Z,-2.09
2024-01-31T01:33:49.010Z,-2.10
2024-01-31T01:34:50.752Z,-2.10
2024-01-31T01:35:52.864Z,-2.09
2024-01-31T01:36:54.370Z,-2.15
2024-01-31T01:37:56.019Z,-2.08
2024-01-31T01:38:57.563Z,-2.17
2024-01-31T01:39:59.130Z,-2.25
2024-01-31T01:41:00.683Z,-2.30
2024-01-31T01:42:02.710Z,-2.40
2024-01-31T01:43:16.013Z,-2.31
2024-01-31T01:44:17.920Z,-2.34
2024-01-31T01:45:19.477Z,-2.32
2024-01-31T01:46:23.261Z,-2.25
2024-01-31T01:47:25.630Z,-2.29
2024-01-31T01:48:27.353Z,-2.34
2024-01-31T01:49:30.308Z,-2.38
2024-01-31T01:50:31.850Z,-2.41
2024-01-31T01:51:33.877Z,-2.41
2024-01-31T01:52:35.941Z,-2.36
2024-01-31T01:53:38.647Z,-2.41
2024-01-31T01:54:40.357Z,-2.47
2024-01-31T01:55:43.114Z,-2.44
2024-01-31T01:56:46.704Z,-2.45
2024-01-31T01:57:48.683Z,-2.53
2024-01-31T01:58:50.751Z,-2.68
2024-01-31T01:59:52.963Z,-2.57
2024-01-31T02:00:54.929Z,-2.46
2024-01-31T02:01:56.913Z,-2.44
2024-01-31T02:02:58.780Z,-2.49
2024-01-31T02:04:01.477Z,-2.42
2024-01-31T02:05:03.542Z,-2.40
2024-01-31T02:06:05.527Z,-2.36
2024-01-31T02:07:07.341Z,-2.34
2024-01-31T02:08:09.411Z,-2.35
2024-01-31T02:09:11.464Z,-2.35
2024-01-31T02:10:13.105Z,-2.42
2024-01-31T02:11:14.800Z,-2.42
2024-01-31T02:12:16.496Z,-2.39
2024-01-31T02:13:18.165Z,-2.44
2024-01-31T02:14:19.843Z,-2.39
2024-01-31T02:15:21.401Z,-2.38
2024-01-31T02:16:22.969Z,-2.42
2024-01-31T02:17:24.594Z,-2.40
2024-01-31T02:18:29.989Z,-2.42
2024-01-31T02:19:31.700Z,-2.37
2024-01-31T02:20:33.343Z,-2.40
2024-01-31T02:21:38.130Z,-2.42
2024-01-31T02:22:39.848Z,-2.39
2024-01-31T02:23:41.450Z,-2.37
2024-01-31T02:24:43.005Z,-2.36
2024-01-31T02:25:46.079Z,-2.42
2024-01-31T02:26:47.980Z,-2.37
2024-01-31T02:27:49.542Z,-2.35
2024-01-31T02:28:51.160Z,-2.34
2024-01-31T02:29:52.685Z,-2.34
2024-01-31T02:30:55.058Z,-2.32
2024-01-31T02:31:56.625Z,-2.33
2024-01-31T02:32:58.266Z,-2.31
2024-01-31T02:34:00.038Z,-2.38
2024-01-31T02:35:01.800Z,-2.48
2024-01-31T02:36:03.641Z,-2.43
2024-01-31T02:37:05.273Z,-2.40
2024-01-31T02:38:06.914Z,-2.42
2024-01-31T02:39:08.605Z,-2.37
2024-01-31T02:40:10.423Z,-2.41
2024-01-31T02:41:12.004Z,-2.43
2024-01-31T02:42:15.510Z,-2.44
2024-01-31T02:43:17.391Z,-2.57
2024-01-31T02:44:23.145Z,-2.52
2024-01-31T02:45:24.851Z,-2.55
2024-01-31T02:46:26.517Z,-2.56
2024-01-31T02:47:28.093Z,-2.56
2024-01-31T02:48:29.696Z,-2.60
2024-01-31T02:49:31.595Z,-2.62
2024-01-31T02:50:34.011Z,-2.64
2024-01-31T02:51:35.751Z,-2.66
2024-01-31T02:52:37.424Z,-2.66
2024-01-31T02:53:39.023Z,-2.66
2024-01-31T02:54:40.572Z,-2.64
2024-01-31T02:55:42.267Z,-2.65
2024-01-31T02:56:44.092Z,-2.67
2024-01-31T02:57:45.916Z,-2.69
2024-01-31T02:58:47.484Z,-2.65
2024-01-31T02:59:49.058Z,-2.64
2024-01-31T03:00:50.620Z,-2.74
2024-01-31T03:01:52.315Z,-2.73
2024-01-31T03:02:53.906Z,-2.75
2024-01-31T03:03:55.505Z,-2.79
2024-01-31T03:04:57.234Z,-2.79
2024-01-31T03:05:58.934Z,-2.71
2024-01-31T03:07:00.690Z,-2.71
2024-01-31T03:08:02.314Z,-2.69
2024-01-31T03:09:04.031Z,-2.69
2024-01-31T03:10:06.386Z,-2.68
2024-01-31T03:11:07.928Z,-2.70
2024-01-31T03:12:09.532Z,-2.73
2024-01-31T03:13:12.382Z,-2.76
2024-01-31T03:14:14.019Z,-2.70
2024-01-31T03:15:15.562Z,-2.67
2024-01-31T03:16:17.160Z,-2.68
2024-01-31T03:17:18.710Z,-2.69
2024-01-31T03:18:20.410Z,-2.68
2024-01-31T03:19:22.062Z,-2.69
2024-01-31T03:20:23.807Z,-2.67
2024-01-31T03:21:25.415Z,-2.66
2024-01-31T03:22:26.983Z,-2.66
2024-01-31T03:23:28.537Z,-2.65
2024-01-31T03:24:30.102Z,-2.69
2024-01-31T03:25:31.737Z,-2.71
2024-01-31T03:26:33.336Z,-2.71
2024-01-31T03:27:35.204Z,-2.71
2024-01-31T03:28:36.828Z,-2.79
2024-01-31T03:29:38.490Z,-2.88
2024-01-31T03:30:40.013Z,-2.89
2024-01-31T03:31:41.720Z,-2.96
2024-01-31T03:32:43.689Z,-3.00
2024-01-31T03:33:45.656Z,-2.95
2024-01-31T03:34:47.413Z,-2.95
2024-01-31T03:35:49.244Z,-2.87
2024-01-31T03:36:51.001Z,-2.84
2024-01-31T03:37:52.594Z,-2.89
2024-01-31T03:38:55.553Z,-2.86
2024-01-31T03:39:57.169Z,-2.89
2024-01-31T03:40:58.784Z,-2.92
2024-01-31T03:42:00.638Z,-2.89
2024-01-31T03:43:02.326Z,-3.02
2024-01-31T03:44:03.963Z,-2.90
2024-01-31T03:45:07.018Z,-2.88
2024-01-31T03:46:08.748Z,-2.88
2024-01-31T03:47:10.381Z,-2.86
2024-01-31T03:48:12.094Z,-2.86
2024-01-31T03:49:13.822Z,-2.82
2024-01-31T03:50:15.478Z,-2.83
2024-01-31T03:51:24.689Z,-2.94
2024-01-31T03:52:26.444Z,-2.97
2024-01-31T03:53:28.281Z,-2.91
2024-01-31T03:54:29.957Z,-2.87
2024-01-31T03:55:33.914Z,-2.87
2024-01-31T03:56:35.672Z,-2.85
2024-01-31T03:57:37.672Z,-2.91
2024-01-31T03:58:42.902Z,-2.97
2024-01-31T03:59:44.520Z,-2.94
2024-01-31T04:00:46.220Z,-2.89
2024-01-31T04:01:51.528Z,-2.86
2024-01-31T04:02:53.124Z,-2.93
2024-01-31T04:03:54.724Z,-3.01
2024-01-31T04:04:56.449Z,-3.01
2024-01-31T04:05:58.097Z,-3.04
2024-01-31T04:06:59.702Z,-3.00
2024-01-31T04:08:01.317Z,-2.98
2024-01-31T04:09:02.889Z,-2.93
2024-01-31T04:10:04.881Z,-2.86
2024-01-31T04:11:06.646Z,-2.86
2024-01-31T04:12:08.421Z,-2.89
2024-01-31T04:13:10.018Z,-2.89
2024-01-31T04:14:11.636Z,-2.93
2024-01-31T04:15:13.216Z,-2.94
2024-01-31T04:16:17.769Z,-2.91
2024-01-31T04:17:20.393Z,-3.00
2024-01-31T04:18:22.291Z,-2.90
2024-01-31T04:19:23.974Z,-2.89
2024-01-31T04:20:25.677Z,-2.89
2024-01-31T04:21:27.290Z,-2.95
2024-01-31T04:22:28.850Z,-2.95
2024-01-31T04:23:30.494Z,-2.98
2024-01-31T04:24:32.019Z,-2.98
2024-01-31T04:25:33.687Z,-3.08
2024-01-31T04:26:42.747Z,-3.08
2024-01-31T04:27:44.276Z,-2.93
2024-01-31T04:28:46.233Z,-2.92
2024-01-31T04:29:48.187Z,-2.89
2024-01-31T04:30:49.936Z,-2.91
2024-01-31T04:31:54.621Z,-2.86
2024-01-31T04:32:56.245Z,-2.86
2024-01-31T04:33:57.978Z,-2.86
2024-01-31T04:34:59.630Z,-2.81
2024-01-31T04:36:01.232Z,-2.80
2024-01-31T04:37:02.839Z,-2.77
2024-01-31T04:38:04.559Z,-2.75
2024-01-31T04:39:06.122Z,-2.79
2024-01-31T04:40:08.699Z,-2.73
2024-01-31T04:41:10.379Z,-2.72
2024-01-31T04:42:11.924Z,-2.75
2024-01-31T04:43:19.773Z,-2.71
2024-01-31T04:44:21.347Z,-2.69
2024-01-31T04:45:22.959Z,-2.75
2024-01-31T04:46:24.589Z,-2.67
2024-01-31T04:47:27.229Z,-2.75
2024-01-31T04:48:28.945Z,-2.70
2024-01-31T04:49:30.830Z,-2.70
2024-01-31T04:50:32.640Z,-2.70
2024-01-31T04:51:34.233Z,-2.70
2024-01-31T04:52:36.425Z,-2.70
2024-01-31T04:53:38.018Z,-2.71
2024-01-31T04:54:42.626Z,-2.75
2024-01-31T04:55:45.863Z,-2.73
2024-01-31T04:56:47.540Z,-2.80
2024-01-31T04:57:49.135Z,-2.74
2024-01-31T04:58:50.742Z,-2.80
2024-01-31T04:59:54.583Z,-2.76
2024-01-31T05:00:57.720Z,-2.85
2024-01-31T05:01:59.406Z,-2.75
2024-01-31T05:03:01.114Z,-2.73
2024-01-31T05:04:03.012Z,-2.76
2024-01-31T05:05:05.333Z,-2.73
2024-01-31T05:06:07.053Z,-2.73
2024-01-31T05:07:08.919Z,-2.77
2024-01-31T05:08:10.588Z,-2.77
2024-01-31T05:09:12.253Z,-2.79
2024-01-31T05:10:14.145Z,-2.76
2024-01-31T05:11:15.955Z,-2.79
2024-01-31T05:12:17.526Z,-2.79
2024-01-31T05:13:19.168Z,-2.80
2024-01-31T05:14:21.437Z,-2.76
2024-01-31T05:15:23.042Z,-2.79
2024-01-31T05:16:24.796Z,-2.75
2024-01-31T05:17:26.478Z,-2.74
2024-01-31T05:18:28.239Z,-2.75
2024-01-31T05:19:31.178Z,-2.74
2024-01-31T05:20:33.175Z,-2.75
2024-01-31T05:21:34.750Z,-2.74
2024-01-31T05:22:36.323Z,-2.78
2024-01-31T05:23:39.072Z,-2.85
2024-01-31T05:24:41.732Z,-2.84
2024-01-31T05:25:43.521Z,-2.83
2024-01-31T05:26:47.403Z,-2.83
2024-01-31T05:27:52.185Z,-2.83
2024-01-31T05:28:53.769Z,-2.98
2024-01-31T05:29:55.315Z,-3.09
2024-01-31T05:30:56.879Z,-3.13
2024-01-31T05:31:58.932Z,-3.19
2024-01-31T05:33:00.829Z,-3.34
2024-01-31T05:34:02.913Z,-3.17
2024-01-31T05:35:04.992Z,-3.13
2024-01-31T05:36:07.928Z,-3.12
2024-01-31T05:37:09.548Z,-3.10
2024-01-31T05:38:11.134Z,-3.05
2024-01-31T05:39:12.684Z,-3.07
2024-01-31T05:40:17.957Z,-3.03
2024-01-31T05:41:19.601Z,-3.05
2024-01-31T05:42:21.197Z,-3.08
2024-01-31T05:43:22.780Z,-2.99
2024-01-31T05:44:24.430Z,-2.99
2024-01-31T05:45:26.352Z,-3.05
2024-01-31T05:46:27.990Z,-2.97
2024-01-31T05:47:29.807Z,-3.02
2024-01-31T05:48:31.434Z,-2.98
2024-01-31T05:49:33.173Z,-3.03
2024-01-31T05:50:35.193Z,-2.99
2024-01-31T05:51:37.206Z,-2.96
2024-01-31T05:52:39.032Z,-2.94
2024-01-31T05:53:41.443Z,-2.97
2024-01-31T05:54:43.222Z,-2.95
2024-01-31T05:55:44.940Z,-3.08
2024-01-31T05:56:46.609Z,-3.18
2024-01-31T05:57:51.434Z,-3.12
2024-01-31T05:58:52.990Z,-3.06
2024-01-31T05:59:54.524Z,-3.10
2024-01-31T06:00:56.252Z,-2.99
2024-01-31T06:01:58.807Z,-2.98
2024-01-31T06:03:01.244Z,-2.94
2024-01-31T06:04:05.273Z,-2.92
2024-01-31T06:05:07.553Z,-2.94
2024-01-31T06:06:09.255Z,-2.90
2024-01-31T06:07:13.506Z,-2.85
2024-01-31T06:08:15.170Z,-2.84
2024-01-31T06:09:16.815Z,-2.85
2024-01-31T06:10:18.502Z,-2.76
2024-01-31T06:11:20.186Z,-2.74
2024-01-31T06:12:21.711Z,-2.76
2024-01-31T06:13:23.274Z,-2.76
2024-01-31T06:14:24.883Z,-2.72
2024-01-31T06:15:26.577Z,-2.73
2024-01-31T06:16:28.309Z,-2.70
2024-01-31T06:17:29.888Z,-2.74
2024-01-31T06:18:35.425Z,-2.66
2024-01-31T06:19:39.174Z,-2.60
2024-01-31T06:20:42.031Z,-2.64
2024-01-31T06:21:43.661Z,-2.60
2024-01-31T06:22:45.465Z,-2.55
2024-01-31T06:23:47.852Z,-2.57
2024-01-31T06:24:49.476Z,-2.52
2024-01-31T06:25:51.071Z,-2.49
2024-01-31T06:26:52.665Z,-2.45
2024-01-31T06:27:54.465Z,-2.46
2024-01-31T06:28:56.110Z,-2.47
2024-01-31T06:29:57.818Z,-2.40
2024-01-31T06:31:04.834Z,-2.40
2024-01-31T06:32:07.328Z,-2.38
2024-01-31T06:33:09.420Z,-2.26
2024-01-31T06:34:11.140Z,-2.22
2024-01-31T06:35:12.932Z,-2.23
2024-01-31T06:36:14.565Z,-2.17
2024-01-31T06:37:16.854Z,-2.10
2024-01-31T06:38:18.525Z,-2.09
2024-01-31T06:39:20.720Z,-2.07
2024-01-31T06:40:23.148Z,-2.06
2024-01-31T06:41:24.688Z,-2.01
2024-01-31T06:42:26.450Z,-1.99
2024-01-31T06:43:28.106Z,-2.02
2024-01-31T06:44:29.763Z,-1.97
2024-01-31T06:45:31.390Z,-1.95
2024-01-31T06:46:33.019Z,-2.01
2024-01-31T06:47:34.764Z,-1.85
2024-01-31T06:48:36.939Z,-1.76
2024-01-31T06:49:38.850Z,-1.70
2024-01-31T06:50:40.476Z,-1.78
2024-01-31T06:51:42.111Z,-1.66
2024-01-31T06:52:43.783Z,-1.67
2024-01-31T06:53:45.725Z,-1.58
2024-01-31T06:54:47.854Z,-1.56
2024-01-31T06:55:49.486Z,-1.47
2024-01-31T06:56:51.065Z,-1.46
2024-01-31T06:57:53.089Z,-1.38
2024-01-31T06:58:56.311Z,-1.39
2024-01-31T06:59:57.871Z,-1.26
2024-01-31T07:01:02.741Z,-1.25
2024-01-31T07:02:04.632Z,-1.31
2024-01-31T07:03:06.446Z,-1.22
2024-01-31T07:04:08.571Z,-1.17
2024-01-31T07:05:10.324Z,-1.20
2024-01-31T07:06:12.761Z,-1.20
2024-01-31T07:07:14.703Z,-1.22
2024-01-31T07:08:16.477Z,-1.17
2024-01-31T07:09:18.149Z,-1.12
2024-01-31T07:10:19.844Z,-1.10
2024-01-31T07:11:22.142Z,-1.08
2024-01-31T07:12:23.717Z,-1.02
2024-01-31T07:13:25.324Z,-1.08
2024-01-31T07:14:26.902Z,-1.03
2024-01-31T07:15:28.569Z,-0.94
2024-01-31T07:16:30.392Z,-0.87
2024-01-31T07:17:32.294Z,-0.82
2024-01-31T07:18:33.937Z,-0.68
2024-01-31T07:19:35.573Z,-0.54
2024-01-31T07:20:37.213Z,-0.37
2024-01-31T07:21:38.765Z,-0.18
2024-01-31T07:22:40.426Z,0.06
2024-01-31T07:23:41.996Z,0.36
2024-01-31T07:24:44.663Z,0.70
2024-01-31T07:25:46.367Z,1.03
2024-01-31T07:26:48.381Z,1.43
2024-01-31T07:27:51.265Z,1.78
2024-01-31T07:28:53.199Z,2.14
2024-01-31T07:29:54.804Z,2.49
2024-01-31T07:30:56.387Z,2.80
2024-01-31T07:31:58.002Z,3.26
2024-01-31T07:32:59.562Z,3.61
2024-01-31T07:34:01.397Z,4.08
2024-01-31T07:35:03.020Z,4.31
2024-01-31T07:36:05.036Z,4.70
2024-01-31T07:37:06.942Z,5.04
2024-01-31T07:38:08.532Z,5.38
2024-01-31T07:39:10.959Z,5.70
2024-01-31T07:40:12.969Z,5.99
2024-01-31T07:41:15.125Z,6.38
2024-01-31T07:42:16.693Z,6.67
2024-01-31T07:43:18.333Z,6.90
2024-01-31T07:44:19.898Z,7.17
2024-01-31T07:45:21.650Z,7.54
2024-01-31T07:46:23.376Z,7.83
2024-01-31T07:47:25.115Z,8.14
2024-01-31T07:48:26.702Z,8.30
2024-01-31T07:49:28.300Z,8.58
2024-01-31T07:50:33.988Z,8.78
2024-01-31T07:51:44.852Z,9.04
2024-01-31T07:52:46.665Z,9.33
2024-01-31T07:53:48.371Z,9.55
2024-01-31T07:54:49.932Z,9.89
2024-01-31T07:55:51.710Z,10.16
2024-01-31T07:56:53.437Z,10.39
2024-01-31T07:57:54.963Z,10.66
2024-01-31T07:58:56.553Z,10.91
2024-01-31T07:59:58.141Z,11.25
2024-01-31T08:01:00.186Z,11.52
2024-01-31T08:02:02.107Z,11.74
2024-01-31T08:03:04.732Z,12.00
2024-01-31T08:04:06.603Z,12.35
2024-01-31T08:05:08.428Z,12.74
2024-01-31T08:06:10.073Z,12.89
2024-01-31T08:07:14.656Z,13.11
2024-01-31T08:08:17.611Z,13.23
2024-01-31T08:09:22.794Z,13.32
2024-01-31T08:10:24.942Z,13.53
2024-01-31T08:11:26.537Z,13.71
2024-01-31T08:12:28.056Z,13.85
2024-01-31T08:13:29.813Z,14.01
2024-01-31T08:14:31.432Z,14.23
2024-01-31T08:15:33.898Z,14.16
2024-01-31T08:16:35.596Z,14.44
2024-01-31T08:17:37.295Z,14.50
2024-01-31T08:18:39.570Z,14.50
2024-01-31T08:19:41.330Z,14.52
2024-01-31T08:20:43.056Z,14.57
2024-01-31T08:21:44.686Z,14.61
2024-01-31T08:22:46.308Z,14.71
2024-01-31T08:23:47.898Z,14.51
2024-01-31T08:24:50.946Z,14.72
2024-01-31T08:25:52.639Z,14.88
2024-01-31T08:26:54.307Z,15.01
2024-01-31T08:27:55.880Z,15.21
2024-01-31T08:29:07.545Z,15.38
2024-01-31T08:30:17.960Z,15.53
2024-01-31T08:31:19.585Z,15.69
2024-01-31T08:32:21.172Z,15.68
2024-01-31T08:33:22.893Z,15.60
2024-01-31T08:34:27.417Z,15.64
2024-01-31T08:35:31.574Z,15.87
2024-01-31T08:36:33.206Z,15.96
2024-01-31T08:37:34.976Z,16.09
2024-01-31T08:38:39.446Z,16.18
2024-01-31T08:39:42.319Z,16.23
2024-01-31T08:40:43.858Z,16.34
2024-01-31T08:41:45.702Z,16.36
2024-01-31T08:42:47.385Z,16.16
2024-01-31T08:43:48.998Z,16.23
2024-01-31T08:44:51.662Z,16.40
2024-01-31T08:45:54.537Z,16.54
2024-01-31T08:47:04.509Z,16.75
2024-01-31T08:48:17.724Z,16.96
2024-01-31T08:49:19.499Z,16.99
2024-01-31T08:50:21.371Z,17.13
2024-01-31T08:51:23.762Z,17.22
2024-01-31T08:52:25.358Z,17.15
2024-01-31T08:53:26.942Z,17.24
2024-01-31T08:54:28.565Z,17.37
2024-01-31T08:55:30.315Z,17.42
2024-01-31T08:56:32.200Z,17.25
2024-01-31T08:57:33.885Z,16.90
2024-01-31T08:58:35.505Z,16.59
2024-01-31T08:59:37.040Z,16.35
2024-01-31T09:00:38.657Z,16.98
2024-01-31T09:01:47.249Z,17.25
2024-01-31T09:02:49.079Z,17.10
2024-01-31T09:03:50.766Z,16.72
2024-01-31T09:04:52.421Z,16.48
2024-01-31T09:05:55.266Z,16.75
2024-01-31T09:06:57.138Z,16.76
2024-01-31T09:08:00.729Z,16.82
2024-01-31T09:09:02.501Z,16.65
2024-01-31T09:10:05.740Z,16.63
2024-01-31T09:11:07.365Z,16.98
2024-01-31T09:12:09.764Z,17.29
2024-01-31T09:13:11.440Z,17.64
2024-01-31T09:14:13.790Z,17.80
2024-01-31T09:15:16.107Z,18.12
2024-01-31T09:16:18.099Z,18.37
2024-01-31T09:17:19.786Z,18.47
2024-01-31T09:18:22.213Z,18.70
2024-01-31T09:19:24.135Z,18.75
2024-01-31T09:20:25.774Z,18.95
2024-01-31T09:21:28.245Z,19.03
2024-01-31T09:22:29.862Z,19.27
2024-01-31T09:23:31.445Z,19.48
2024-01-31T09:24:33.002Z,19.42
2024-01-31T09:25:34.690Z,19.53
2024-01-31T09:26:36.272Z,19.60
2024-01-31T09:27:38.065Z,19.73
2024-01-31T09:28:40.515Z,19.86
2024-01-31T09:29:44.400Z,19.89
2024-01-31T09:30:46.307Z,19.94
2024-01-31T09:31:48.501Z,19.99
2024-01-31T09:32:50.201Z,19.90
2024-01-31T09:33:53.085Z,19.87
2024-01-31T09:34:56.969Z,19.50
2024-01-31T09:35:59.059Z,19.26
2024-01-31T09:37:00.645Z,19.24
2024-01-31T09:38:02.291Z,19.18
2024-01-31T09:39:04.811Z,19.05
2024-01-31T09:40:09.334Z,18.83
2024-01-31T09:41:12.475Z,19.08
2024-01-31T09:42:14.067Z,19.15
2024-01-31T09:43:15.701Z,19.27
2024-01-31T09:44:18.971Z,19.45
2024-01-31T09:45:22.690Z,19.56
2024-01-31T09:46:24.786Z,19.82
2024-01-31T09:47:29.005Z,20.09
2024-01-31T09:48:32.012Z,20.28
2024-01-31T09:49:33.809Z,20.43
2024-01-31T09:50:35.464Z,20.07
2024-01-31T09:51:38.774Z,19.70
2024-01-31T09:52:41.984Z,19.38
2024-01-31T09:53:46.751Z,19.03
2024-01-31T09:54:48.500Z,19.32
2024-01-31T09:55:56.339Z,19.47
2024-01-31T09:56:58.726Z,19.51
2024-01-31T09:58:01.476Z,19.49
2024-01-31T09:59:04.519Z,19.25
2024-01-31T10:00:06.724Z,18.85
2024-01-31T10:01:14.801Z,18.51
2024-01-31T10:02:23.805Z,18.34
2024-01-31T10:03:25.806Z,18.22
2024-01-31T10:04:27.491Z,17.83
2024-01-31T10:05:29.060Z,17.27
2024-01-31T10:06:31.184Z,16.98
2024-01-31T10:07:32.849Z,17.51
2024-01-31T10:08:36.190Z,17.88
2024-01-31T10:09:37.835Z,17.96
2024-01-31T10:10:39.623Z,17.80
2024-01-31T10:11:47.680Z,17.47
2024-01-31T10:12:49.256Z,17.62
2024-01-31T10:13:52.157Z,17.40
2024-01-31T10:14:53.992Z,17.52
2024-01-31T10:15:55.728Z,17.44
2024-01-31T10:16:57.333Z,17.16
2024-01-31T10:17:59.530Z,16.81
2024-01-31T10:19:01.208Z,16.33
2024-01-31T10:20:08.721Z,16.43
2024-01-31T10:21:11.951Z,16.22
2024-01-31T10:22:16.119Z,15.93
2024-01-31T10:23:18.039Z,15.99
2024-01-31T10:24:19.774Z,16.22
2024-01-31T10:25:21.763Z,16.61
2024-01-31T10:26:23.881Z,17.02
2024-01-31T10:27:25.688Z,17.39
2024-01-31T10:28:29.700Z,17.77
2024-01-31T10:29:33.074Z,18.05
2024-01-31T10:30:44.365Z,18.28
2024-01-31T10:31:47.900Z,18.47
2024-01-31T10:32:51.406Z,18.70
2024-01-31T10:33:53.753Z,18.81
2024-01-31T10:35:20.404Z,18.76
2024-01-31T10:37:08.550Z,18.63
2024-01-31T10:37:54.810Z,18.91
2024-01-31T10:38:59.729Z,19.28
2024-01-31T10:40:03.159Z,19.34
2024-01-31T10:41:07.702Z,19.39
2024-01-31T10:42:10.174Z,19.44
2024-01-31T10:43:11.825Z,19.55
2024-01-31T10:44:15.916Z,19.60
2024-01-31T10:45:20.165Z,19.58
2024-01-31T10:46:21.949Z,19.45
2024-01-31T10:47:23.571Z,18.89
2024-01-31T10:48:25.410Z,18.68
2024-01-31T10:49:27.130Z,18.66
2024-01-31T10:50:32.906Z,18.79
2024-01-31T10:51:37.075Z,19.02
2024-01-31T10:52:40.866Z,19.11
2024-01-31T10:53:44.108Z,19.05
2024-01-31T10:54:53.653Z,18.95
2024-01-31T10:55:56.320Z,18.86
2024-01-31T10:56:58.783Z,18.95
2024-01-31T10:58:02.560Z,18.87
2024-01-31T10:59:06.321Z,18.91
2024-01-31T11:00:23.152Z,18.71
2024-01-31T11:01:31.277Z,18.59
2024-01-31T11:02:33.672Z,18.47
2024-01-31T11:03:35.890Z,18.40
2024-01-31T11:04:40.266Z,18.31
2024-01-31T11:05:42.615Z,18.17
2024-01-31T11:06:44.452Z,18.10
2024-01-31T11:07:46.947Z,18.08
2024-01-31T11:08:48.983Z,18.02
2024-01-31T11:09:50.616Z,18.09
2024-01-31T11:10:52.249Z,18.13
2024-01-31T11:12:04.900Z,17.96
2024-01-31T11:13:07.049Z,17.91
2024-01-31T11:14:10.409Z,17.87
2024-01-31T11:15:12.352Z,17.62
2024-01-31T11:16:25.274Z,17.55
2024-01-31T11:17:34.584Z,17.42
2024-01-31T11:18:37.571Z,17.18
2024-01-31T11:19:52.240Z,16.64
2024-01-31T11:20:54.042Z,16.33
2024-01-31T11:21:55.742Z,15.80
2024-01-31T11:23:00.742Z,15.50
2024-01-31T11:24:02.494Z,15.59
2024-01-31T11:25:08.861Z,15.67
2024-01-31T11:26:10.548Z,15.64
2024-01-31T11:27:13.953Z,15.70
2024-01-31T11:28:18.096Z,15.66
2024-01-31T11:29:20.661Z,15.68
2024-01-31T11:30:24.119Z,15.25
2024-01-31T11:31:25.896Z,15.08
2024-01-31T11:32:27.746Z,14.83
2024-01-31T11:33:30.145Z,14.50
2024-01-31T11:34:32.074Z,13.88
2024-01-31T11:35:34.076Z,13.45
2024-01-31T11:36:35.680Z,13.47
2024-01-31T11:37:37.268Z,13.31
2024-01-31T11:38:39.549Z,13.21
2024-01-31T11:39:41.354Z,12.93
2024-01-31T11:40:42.989Z,12.91
2024-01-31T11:41:44.618Z,12.76
2024-01-31T11:42:47.903Z,12.51
2024-01-31T11:43:50.098Z,12.03
2024-01-31T11:44:52.464Z,12.03
2024-01-31T11:45:54.346Z,12.12
2024-01-31T11:46:55.985Z,12.16
2024-01-31T11:47:59.630Z,12.09
2024-01-31T11:49:01.617Z,11.86
2024-01-31T11:50:04.278Z,11.61
2024-01-31T11:51:06.110Z,11.54
2024-01-31T11:52:07.739Z,11.60
2024-01-31T11:53:09.588Z,11.58
2024-01-31T11:54:11.462Z,11.52
2024-01-31T11:55:13.315Z,11.46
2024-01-31T11:56:14.970Z,11.43
2024-01-31T11:57:17.154Z,11.25
2024-01-31T11:58:19.058Z,11.22
2024-01-31T11:59:21.571Z,11.36
2024-01-31T12:00:24.468Z,11.37
2024-01-31T12:01:27.603Z,11.29
2024-01-31T12:02:29.423Z,11.15
2024-01-31T12:03:31.766Z,11.10
2024-01-31T12:04:33.697Z,11.01
2024-01-31T12:05:35.409Z,11.05
2024-01-31T12:06:37.120Z,11.22
2024-01-31T12:07:39.346Z,11.27
2024-01-31T12:08:47.264Z,11.34
2024-01-31T12:09:49.015Z,11.24
2024-01-31T12:10:51.339Z,11.33
2024-01-31T12:11:53.391Z,11.27
2024-01-31T12:13:02.254Z,11.21
2024-01-31T12:14:04.992Z,11.29
2024-01-31T12:15:07.079Z,11.25
2024-01-31T12:16:09.572Z,11.29
2024-01-31T12:17:27.383Z,11.21
2024-01-31T12:18:29.385Z,11.21
2024-01-31T12:19:31.351Z,11.23
2024-01-31T12:20:33.076Z,11.23
2024-01-31T12:21:42.799Z,11.27
2024-01-31T12:22:46.291Z,11.23
2024-01-31T12:23:47.945Z,11.21
2024-01-31T12:24:49.511Z,11.22
2024-01-31T12:25:51.062Z,11.28
2024-01-31T12:26:52.677Z,11.18
2024-01-31T12:27:54.343Z,11.21
2024-01-31T12:28:56.636Z,11.13
2024-01-31T12:29:58.547Z,11.05
2024-01-31T12:31:00.132Z,11.00
2024-01-31T12:32:01.802Z,11.06
2024-01-31T12:33:04.148Z,11.01
2024-01-31T12:34:05.728Z,11.04
2024-01-31T12:35:07.837Z,11.00
2024-01-31T12:36:12.537Z,10.95
2024-01-31T12:37:14.411Z,11.08
2024-01-31T12:38:16.057Z,11.20
2024-01-31T12:39:20.345Z,11.24
2024-01-31T12:40:22.463Z,11.34
2024-01-31T12:41:24.775Z,11.21
2024-01-31T12:42:26.804Z,11.20
2024-01-31T12:43:28.700Z,11.12
2024-01-31T12:44:31.543Z,11.25
2024-01-31T12:45:34.439Z,11.34
2024-01-31T12:46:36.099Z,11.40
2024-01-31T12:47:38.164Z,11.48
2024-01-31T12:48:42.433Z,11.49
2024-01-31T12:49:44.873Z,11.51
2024-01-31T12:50:46.745Z,11.46
2024-01-31T12:51:48.452Z,11.39
2024-01-31T12:52:50.241Z,11.30
2024-01-31T12:53:51.884Z,11.36
2024-01-31T12:54:53.540Z,11.48
2024-01-31T12:55:55.061Z,11.46
2024-01-31T12:56:56.873Z,11.52
2024-01-31T12:57:58.424Z,11.56
2024-01-31T12:59:00.039Z,11.46
2024-01-31T13:00:01.971Z,11.41
2024-01-31T13:01:03.774Z,11.53
2024-01-31T13:02:05.590Z,11.65
2024-01-31T13:03:08.894Z,11.58
2024-01-31T13:04:11.154Z,11.72
2024-01-31T13:05:13.170Z,11.79
2024-01-31T13:06:15.699Z,11.71
2024-01-31T13:07:17.752Z,11.69
2024-01-31T13:08:19.872Z,11.68
2024-01-31T13:09:21.970Z,11.68
2024-01-31T13:10:23.549Z,11.67
2024-01-31T13:11:25.125Z,11.64
2024-01-31T13:12:26.706Z,11.53
2024-01-31T13:13:28.317Z,11.60
2024-01-31T13:14:30.966Z,11.61
2024-01-31T13:15:32.840Z,11.64
2024-01-31T13:16:42.323Z,11.75
2024-01-31T13:17:48.176Z,11.90
2024-01-31T13:18:49.992Z,12.02
2024-01-31T13:19:51.654Z,12.10
2024-01-31T13:20:53.568Z,12.17
2024-01-31T13:21:55.177Z,12.18
2024-01-31T13:22:56.735Z,11.94
2024-01-31T13:23:58.383Z,11.75
2024-01-31T13:25:00.037Z,11.69
2024-01-31T13:26:01.883Z,11.79